Time;durP1;ratioP1;P1;durP2;ratioP2;P2;SDS_P1;SDS_P2;PMS_P1;PMS_P2;Temp;Humidity;BMP_temperature;BMP_pressure;BME280_temperature;BME280_humidity;BME280_pressure;Samples;Min_cycle;Max_cycle;Signal;HPM_P1;HPM_P2
2021/01/01 00:00:33;;;;;;;17.47;13.60;;;3.20;99.90;;;;;;5068256;28;20445;-70
2021/01/01 00:03:00;;;;;;;15.80;11.87;;;3.20;99.90;;;;;;5067987;28;20548;-71
2021/01/01 00:05:27;;;;;;;17.57;13.00;;;3.20;99.90;;;;;;5065851;28;20452;-71
2021/01/01 00:07:54;;;;;;;17.93;12.27;;;3.20;99.90;;;;;;5067651;28;20950;-71
2021/01/01 00:10:21;;;;;;;16.30;12.57;;;3.40;99.90;;;;;;5067947;28;20450;-71
2021/01/01 00:12:47;;;;;;;18.60;12.57;;;3.50;99.90;;;;;;5067974;28;20453;-71
2021/01/01 00:15:15;;;;;;;19.43;14.07;;;3.40;99.90;;;;;;5067495;28;20667;-71
2021/01/01 00:17:41;;;;;;;17.63;13.03;;;3.40;99.90;;;;;;5067691;28;20479;-70
2021/01/01 00:20:09;;;;;;;17.57;11.23;;;3.40;99.90;;;;;;5067804;28;20817;-70
2021/01/01 00:22:36;;;;;;;23.10;14.17;;;3.40;99.90;;;;;;5067351;28;20508;-71
2021/01/01 00:25:04;;;;;;;21.73;12.90;;;3.50;99.90;;;;;;5066956;28;20532;-70
2021/01/01 00:27:31;;;;;;;15.80;10.87;;;3.50;99.90;;;;;;5067387;28;20532;-70
2021/01/01 00:29:58;;;;;;;15.27;9.90;;;3.50;99.90;;;;;;5067511;28;20539;-71
2021/01/01 00:32:24;;;;;;;13.97;9.50;;;3.50;99.90;;;;;;5067851;28;20464;-70
2021/01/01 00:34:51;;;;;;;15.90;10.57;;;3.60;99.90;;;;;;5067661;28;20450;-70
2021/01/01 00:37:17;;;;;;;14.80;10.50;;;3.70;99.90;;;;;;5066801;28;20490;-70
2021/01/01 00:39:44;;;;;;;15.00;10.87;;;3.60;99.90;;;;;;5067816;28;20985;-69
2021/01/01 00:42:11;;;;;;;15.97;10.20;;;3.60;99.90;;;;;;5065636;28;20484;-69
2021/01/01 00:44:38;;;;;;;14.83;10.33;;;3.70;99.90;;;;;;5068231;28;20480;-69
2021/01/01 00:47:04;;;;;;;14.60;10.77;;;3.70;99.90;;;;;;5067237;28;20464;-69
2021/01/01 00:49:31;;;;;;;16.53;11.63;;;3.70;99.90;;;;;;5067824;28;20545;-69
2021/01/01 00:52:03;;;;;;;12.40;8.70;;;3.60;99.90;;;;;;5067577;28;20560;-69
2021/01/01 00:54:29;;;;;;;13.60;8.90;;;3.60;99.90;;;;;;5066192;28;20469;-71
2021/01/01 00:56:55;;;;;;;13.83;9.33;;;3.60;99.90;;;;;;5066683;28;20567;-69
2021/01/01 00:59:22;;;;;;;11.77;9.97;;;3.50;99.90;;;;;;5066549;28;20823;-71
2021/01/01 01:01:49;;;;;;;11.93;8.03;;;3.50;99.90;;;;;;5069284;28;20558;-70
2021/01/01 01:04:15;;;;;;;10.63;8.27;;;3.60;99.90;;;;;;5070515;28;20447;-69
2021/01/01 01:06:42;;;;;;;12.20;9.40;;;3.60;99.90;;;;;;5085963;28;20448;-70
2021/01/01 01:09:08;;;;;;;11.93;8.93;;;3.70;99.90;;;;;;5068716;28;20508;-69
2021/01/01 01:11:34;;;;;;;13.30;9.70;;;3.80;99.90;;;;;;5071315;28;20556;-69
2021/01/01 01:14:02;;;;;;;10.83;8.17;;;3.90;99.90;;;;;;5072851;28;20493;-69
2021/01/01 01:16:32;;;;;;;9.50;6.83;;;3.90;99.90;;;;;;5072987;28;20455;-69
2021/01/01 01:19:00;;;;;;;11.30;7.97;;;3.80;99.90;;;;;;5073139;28;20464;-69
2021/01/01 01:21:27;;;;;;;12.03;8.00;;;3.90;99.90;;;;;;5073717;28;20487;-69
2021/01/01 01:23:54;;;;;;;13.33;9.50;;;3.90;99.90;;;;;;5065715;28;20536;-69
2021/01/01 01:26:21;;;;;;;12.87;8.47;;;4.00;99.90;;;;;;5072789;28;20460;-69
2021/01/01 01:28:48;;;;;;;13.37;8.73;;;4.00;99.90;;;;;;5073105;28;20540;-69
2021/01/01 01:31:14;;;;;;;11.83;7.40;;;3.90;99.90;;;;;;5072432;28;21142;-69
2021/01/01 01:33:42;;;;;;;13.00;8.60;;;3.90;99.90;;;;;;5073318;28;20540;-69
2021/01/01 01:36:08;;;;;;;9.80;7.70;;;4.00;99.90;;;;;;5073074;28;20537;-69
2021/01/01 01:38:35;;;;;;;11.33;7.87;;;4.10;99.90;;;;;;5073326;28;20818;-69
2021/01/01 01:41:01;;;;;;;10.20;8.27;;;4.10;99.90;;;;;;5072316;28;20921;-69
2021/01/01 01:43:28;;;;;;;10.57;7.23;;;4.10;99.90;;;;;;5073371;28;20445;-69
2021/01/01 01:45:56;;;;;;;8.23;7.30;;;4.20;99.90;;;;;;5072056;28;20536;-69
2021/01/01 01:48:25;;;;;;;10.00;7.90;;;4.30;99.90;;;;;;5072917;28;20838;-69
2021/01/01 01:50:53;;;;;;;10.27;7.90;;;4.40;99.90;;;;;;5072973;28;20449;-69
2021/01/01 01:53:20;;;;;;;11.50;7.37;;;;;;;;;;5073319;28;20457;-69
2021/01/01 01:55:48;;;;;;;9.10;7.60;;;4.50;99.90;;;;;;5072514;28;20911;-69
2021/01/01 01:58:14;;;;;;;9.03;6.67;;;4.40;99.90;;;;;;5072689;28;20725;-70
2021/01/01 02:03:23;;;;;;;12.43;8.57;;;4.50;99.90;;;;;;5070388;28;20440;-70
2021/01/01 02:05:49;;;;;;;11.70;7.90;;;4.50;99.90;;;;;;5072633;28;20468;-70
2021/01/01 02:08:16;;;;;;;8.90;7.70;;;4.60;99.90;;;;;;5072105;28;20442;-70
2021/01/01 02:10:43;;;;;;;10.73;7.57;;;4.70;90.50;;;;;;5072462;28;20531;-69
2021/01/01 02:13:11;;;;;;;10.13;6.63;;;4.80;32.50;;;;;;5070897;28;20532;-69
2021/01/01 02:15:37;;;;;;;9.43;7.90;;;4.80;1.00;;;;;;5072169;28;20455;-69
2021/01/01 02:18:04;;;;;;;8.17;6.60;;;4.60;1.00;;;;;;5072060;28;20540;-70
2021/01/01 02:20:31;;;;;;;10.80;7.03;;;4.70;17.40;;;;;;5072267;28;20460;-69
2021/01/01 02:22:58;;;;;;;7.90;6.30;;;4.70;1.00;;;;;;5071950;28;20588;-69
2021/01/01 02:25:24;;;;;;;9.50;7.03;;;4.70;1.00;;;;;;5072230;28;20445;-69
2021/01/01 02:27:51;;;;;;;9.20;7.50;;;4.60;1.00;;;;;;5072570;28;20524;-69
2021/01/01 02:30:18;;;;;;;7.83;6.37;;;4.80;1.00;;;;;;5071594;28;20517;-69
2021/01/01 02:32:45;;;;;;;9.20;7.70;;;4.70;1.00;;;;;;5072128;28;20986;-69
2021/01/01 02:35:12;;;;;;;9.00;6.80;;;4.80;1.00;;;;;;5071384;28;20442;-69
2021/01/01 02:37:38;;;;;;;8.77;7.10;;;4.90;1.00;;;;;;5071939;28;20452;-69
2021/01/01 02:40:07;;;;;;;11.13;7.20;;;4.80;1.00;;;;;;5071696;28;20477;-69
2021/01/01 02:42:34;;;;;;;9.43;7.20;;;4.90;1.00;;;;;;5072177;28;20485;-69
2021/01/01 02:45:00;;;;;;;11.30;7.40;;;4.70;1.00;;;;;;5071227;28;20540;-69
2021/01/01 02:47:27;;;;;;;11.37;8.53;;;4.90;1.00;;;;;;5071820;28;20537;-69
2021/01/01 02:49:53;;;;;;;9.10;7.27;;;4.80;1.00;;;;;;5072004;28;20459;-69
2021/01/01 02:52:20;;;;;;;9.60;6.93;;;4.80;1.00;;;;;;5071487;28;20456;-69
2021/01/01 02:54:47;;;;;;;9.53;7.07;;;4.70;22.60;;;;;;5071041;28;20856;-70
2021/01/01 02:57:14;;;;;;;8.93;7.00;;;4.50;99.90;;;;;;5071215;28;20469;-69
2021/01/01 02:59:41;;;;;;;8.67;6.87;;;4.50;99.90;;;;;;5070704;28;20553;-70
2021/01/01 03:02:07;;;;;;;9.07;6.40;;;4.50;99.90;;;;;;5057787;28;20957;-70
2021/01/01 03:04:33;;;;;;;11.37;7.73;;;4.40;99.90;;;;;;5071709;28;20457;-70
2021/01/01 03:07:00;;;;;;;8.50;7.00;;;4.60;99.90;;;;;;5070103;28;20446;-69
2021/01/01 03:09:26;;;;;;;12.30;7.90;;;4.60;99.90;;;;;;5071590;28;20484;-70
2021/01/01 03:11:53;;;;;;;11.30;7.80;;;4.60;99.90;;;;;;5071449;28;20450;-70
2021/01/01 03:14:20;;;;;;;11.47;8.27;;;4.50;99.90;;;;;;5071574;28;20485;-70
2021/01/01 03:16:46;;;;;;;10.87;7.93;;;4.40;99.90;;;;;;5070875;28;20536;-69
2021/01/01 03:19:13;;;;;;;9.90;6.50;;;4.40;99.90;;;;;;5070958;28;20537;-69
2021/01/01 03:21:39;;;;;;;11.93;8.77;;;4.40;99.90;;;;;;5070900;28;20513;-69
2021/01/01 03:24:06;;;;;;;8.80;6.80;;;4.50;99.90;;;;;;5070560;28;20555;-69
2021/01/01 03:26:33;;;;;;;13.40;7.60;;;4.60;99.90;;;;;;5070803;28;20794;-69
2021/01/01 03:28:59;;;;;;;7.77;6.50;;;4.60;99.90;;;;;;5070873;28;20852;-69
2021/01/01 03:31:26;;;;;;;10.97;8.13;;;4.60;99.90;;;;;;5070986;28;20521;-70
2021/01/01 03:33:53;;;;;;;11.50;7.30;;;4.40;99.90;;;;;;5071257;28;20562;-69
2021/01/01 03:36:19;;;;;;;10.20;7.47;;;4.40;99.90;;;;;;5070468;28;20462;-70
2021/01/01 03:38:46;;;;;;;10.80;8.10;;;4.50;99.90;;;;;;5070918;28;20510;-69
2021/01/01 03:41:13;;;;;;;11.67;8.43;;;4.50;99.90;;;;;;5070231;28;20846;-69
2021/01/01 03:43:40;;;;;;;9.90;7.73;;;4.70;99.90;;;;;;5070883;28;20811;-70
2021/01/01 03:46:06;;;;;;;10.40;7.50;;;4.60;99.90;;;;;;5070271;28;20442;-70
2021/01/01 03:48:33;;;;;;;10.53;7.33;;;4.60;99.90;;;;;;5070775;28;20469;-70
2021/01/01 03:51:00;;;;;;;13.83;10.17;;;4.40;99.90;;;;;;5070064;28;20480;-70
2021/01/01 03:53:26;;;;;;;13.43;8.50;;;4.40;99.90;;;;;;5070417;28;20987;-70
2021/01/01 03:55:53;;;;;;;13.60;8.33;;;4.30;99.90;;;;;;5070506;28;20508;-70
2021/01/01 03:58:19;;;;;;;8.43;6.93;;;4.40;99.90;;;;;;5070481;28;20453;-70
2021/01/01 04:00:46;;;;;;;12.90;8.93;;;4.30;99.90;;;;;;5070744;28;20477;-70
2021/01/01 04:03:12;;;;;;;13.13;9.33;;;4.40;99.90;;;;;;5070076;28;20562;-70
2021/01/01 04:05:39;;;;;;;12.00;8.07;;;4.40;99.90;;;;;;5070126;28;20463;-70
2021/01/01 04:08:06;;;;;;;11.37;7.57;;;4.30;99.90;;;;;;5069542;28;20543;-70
2021/01/01 04:10:32;;;;;;;11.77;7.80;;;4.30;99.90;;;;;;5070733;28;20485;-70
2021/01/01 04:12:59;;;;;;;12.07;7.83;;;4.30;99.90;;;;;;5070107;28;20537;-70
2021/01/01 04:15:25;;;;;;;13.43;8.63;;;4.30;99.90;;;;;;5070035;28;20995;-70
2021/01/01 04:17:51;;;;;;;10.33;7.43;;;4.40;99.90;;;;;;5070995;28;20455;-69
2021/01/01 04:20:18;;;;;;;12.77;8.80;;;4.30;99.90;;;;;;5070040;28;20453;-70
2021/01/01 04:22:45;;;;;;;13.20;8.73;;;4.30;99.90;;;;;;5070072;28;20619;-70
2021/01/01 04:25:12;;;;;;;11.60;7.00;;;4.30;99.90;;;;;;5069794;28;20444;-69
2021/01/01 04:27:38;;;;;;;12.33;8.47;;;4.20;99.90;;;;;;5070020;28;20586;-70
2021/01/01 04:30:06;;;;;;;11.13;7.90;;;4.30;99.90;;;;;;5069943;28;20445;-70
2021/01/01 04:32:32;;;;;;;12.73;7.93;;;4.40;99.90;;;;;;5070183;28;20532;-70
2021/01/01 04:34:59;;;;;;;12.70;8.90;;;4.40;99.90;;;;;;5069739;28;20528;-69
2021/01/01 04:37:25;;;;;;;13.27;8.10;;;4.40;99.90;;;;;;5073748;28;20453;-69
2021/01/01 04:39:52;;;;;;;11.23;7.50;;;4.40;99.90;;;;;;5074568;28;20452;-69
2021/01/01 04:42:20;;;;;;;12.63;7.90;;;4.30;99.90;;;;;;5074008;28;20567;-69
2021/01/01 04:44:46;;;;;;;11.70;8.53;;;4.40;99.90;;;;;;5074009;28;20532;-69
2021/01/01 04:47:15;;;;;;;10.93;8.80;;;4.40;99.90;;;;;;5073412;28;20952;-70
2021/01/01 04:49:42;;;;;;;12.53;9.70;;;4.30;99.90;;;;;;5073878;28;20461;-68
2021/01/01 04:52:09;;;;;;;13.60;8.90;;;4.30;99.90;;;;;;5073810;28;20453;-69
2021/01/01 04:54:40;;;;;;;14.73;9.70;;;4.40;99.90;;;;;;5073802;28;20991;-68
2021/01/01 04:57:08;;;;;;;13.07;8.33;;;4.30;99.90;;;;;;5073567;28;20473;-69
2021/01/01 04:59:34;;;;;;;12.43;8.00;;;4.30;99.90;;;;;;5074041;28;20551;-69
2021/01/01 05:02:01;;;;;;;14.93;9.03;;;4.30;99.90;;;;;;5073188;28;20812;-68
2021/01/01 05:04:27;;;;;;;14.70;9.57;;;4.20;99.90;;;;;;5073965;28;20851;-70
2021/01/01 05:06:56;;;;;;;13.97;10.00;;;4.20;99.90;;;;;;5073603;28;20826;-69
2021/01/01 05:09:22;;;;;;;9.00;7.87;;;4.30;99.90;;;;;;5073661;28;20453;-69
2021/01/01 05:11:49;;;;;;;12.80;7.80;;;4.20;99.90;;;;;;5073781;28;20531;-69
2021/01/01 05:14:16;;;;;;;12.73;8.27;;;4.30;99.90;;;;;;5073437;28;20489;-68
2021/01/01 05:16:51;;;;;;;15.63;8.53;;;4.30;99.90;;;;;;5072867;28;20451;-68
2021/01/01 05:19:18;;;;;;;10.80;8.10;;;4.00;99.90;;;;;;5073234;28;20449;-68
2021/01/01 05:21:44;;;;;;;10.77;9.63;;;4.00;99.90;;;;;;5073312;28;20487;-68
2021/01/01 05:24:16;;;;;;;11.63;8.43;;;4.20;99.90;;;;;;5073098;28;20477;-68
2021/01/01 05:26:48;;;;;;;14.17;9.43;;;4.40;99.90;;;;;;5072695;28;20443;-68
2021/01/01 05:29:21;;;;;;;12.60;9.40;;;4.30;99.90;;;;;;5072447;28;20471;-69
2021/01/01 05:31:49;;;;;;;18.17;10.13;;;4.30;99.90;;;;;;5073359;28;20945;-68
2021/01/01 05:34:16;;;;;;;14.77;10.00;;;4.40;99.90;;;;;;5072829;28;20536;-68
2021/01/01 05:36:44;;;;;;;13.13;8.50;;;4.50;99.90;;;;;;5072122;28;20460;-68
2021/01/01 05:39:22;;;;;;;12.43;8.33;;;4.60;99.90;;;;;;5072599;28;20441;-68
2021/01/01 05:41:50;;;;;;;12.20;8.17;;;4.60;99.90;;;;;;5073540;28;20579;-69
2021/01/01 05:44:18;;;;;;;13.73;8.93;;;4.60;99.90;;;;;;5072605;28;20535;-69
2021/01/01 05:47:03;;;;;;;18.23;10.90;;;4.60;99.90;;;;;;5072886;28;20489;-68
2021/01/01 05:49:31;;;;;;;14.00;8.33;;;4.40;99.90;;;;;;5063449;28;20491;-69
2021/01/01 05:52:05;;;;;;;14.57;9.53;;;4.40;99.90;;;;;;5072513;28;21005;-69
2021/01/01 05:54:32;;;;;;;13.80;9.60;;;4.40;99.90;;;;;;5072460;28;20915;-69
2021/01/01 05:56:58;;;;;;;12.60;9.33;;;4.30;99.90;;;;;;5072203;28;20800;-69
2021/01/01 05:59:26;;;;;;;12.37;8.70;;;4.30;99.90;;;;;;5073100;28;20541;-68
2021/01/01 06:01:56;;;;;;;13.87;8.60;;;4.20;99.90;;;;;;5072295;28;20484;-69
2021/01/01 06:04:24;;;;;;;15.70;8.17;;;4.20;99.90;;;;;;5072597;28;20453;-69
2021/01/01 06:06:53;;;;;;;10.50;6.87;;;4.20;99.90;;;;;;5073120;28;20544;-68
2021/01/01 06:09:20;;;;;;;9.50;7.33;;;4.20;99.90;;;;;;5072893;28;20449;-70
2021/01/01 06:11:59;;;;;;;9.27;6.87;;;4.00;99.90;;;;;;5072607;28;20539;-69
2021/01/01 06:14:32;;;;;;;9.20;6.30;;;4.30;99.90;;;;;;5072435;28;20462;-69
2021/01/01 06:17:21;;;;;;;7.60;5.57;;;4.20;99.90;;;;;;5072021;28;21218;-69
2021/01/01 06:19:50;;;;;;;8.37;5.67;;;4.20;99.90;;;;;;5072676;28;20511;-69
2021/01/01 06:22:18;;;;;;;6.60;5.53;;;4.20;99.90;;;;;;5071791;28;20518;-68
2021/01/01 06:24:46;;;;;;;11.07;5.87;;;4.20;99.90;;;;;;5071770;28;20565;-68
2021/01/01 06:27:13;;;;;;;7.67;5.57;;;4.20;99.90;;;;;;5071628;28;20509;-69
2021/01/01 06:29:45;;;;;;;6.87;5.00;;;4.20;99.90;;;;;;5072005;28;20449;-69
2021/01/01 06:32:12;;;;;;;7.33;5.20;;;4.30;99.90;;;;;;5071960;28;20454;-68
2021/01/01 06:34:39;;;;;;;6.60;5.63;;;4.30;99.90;;;;;;5071872;28;20539;-69
2021/01/01 06:37:07;;;;;;;8.73;5.87;;;4.60;99.90;;;;;;5071623;28;20912;-69
2021/01/01 06:39:41;;;;;;;5.93;4.53;;;4.90;99.90;;;;;;5071770;28;20446;-69
2021/01/01 06:42:09;;;;;;;6.10;4.60;;;5.10;99.90;;;;;;5071372;28;20479;-69
2021/01/01 06:44:38;;;;;;;4.97;4.23;;;5.40;1.00;;;;;;5071758;28;20530;-69
2021/01/01 06:47:06;;;;;;;5.50;4.50;;;4.80;1.00;;;;;;5071649;28;20471;-68
2021/01/01 06:49:38;;;;;;;5.13;4.30;;;4.60;36.00;;;;;;5071541;28;20477;-68
2021/01/01 06:52:16;;;;;;;6.40;4.40;;;4.60;88.40;;;;;;5071144;28;20450;-69
2021/01/01 06:54:59;;;;;;;4.63;4.03;;;4.60;99.90;;;;;;5063663;28;20437;-69
2021/01/01 06:57:28;;;;;;;7.67;4.80;;;4.70;99.30;;;;;;5071917;28;21028;-68
2021/01/01 06:59:55;;;;;;;6.60;4.00;;;4.60;94.60;;;;;;5070911;28;20532;-68
2021/01/01 07:02:29;;;;;;;6.33;4.67;;;4.60;99.90;;;;;;5071383;28;20486;-69
2021/01/01 07:04:56;;;;;;;5.40;4.37;;;4.50;99.90;;;;;;5070796;28;20524;-69
2021/01/01 07:07:43;;;;;;;5.23;3.93;;;4.50;99.90;;;;;;5071538;28;20445;-68
2021/01/01 07:10:14;;;;;;;6.30;4.60;;;4.60;99.90;;;;;;5071306;28;20502;-69
2021/01/01 07:12:41;;;;;;;4.33;3.20;;;4.60;50.50;;;;;;5071161;28;21004;-69
2021/01/01 07:15:32;;;;;;;5.77;3.77;;;4.60;32.00;;;;;;5070345;28;20467;-68
2021/01/01 07:17:59;;;;;;;5.93;4.40;;;4.60;24.10;;;;;;5061946;28;20510;-67
2021/01/01 07:20:25;;;;;;;6.90;5.03;;;4.50;85.50;;;;;;5071010;28;20540;-68
2021/01/01 07:22:58;;;;;;;6.13;4.50;;;4.60;32.00;;;;;;5071167;28;20525;-69
2021/01/01 07:25:42;;;;;;;5.50;3.83;;;4.60;49.80;;;;;;5070922;28;20527;-70
2021/01/01 07:28:10;;;;;;;7.37;4.53;;;4.60;9.70;;;;;;5070937;28;20900;-69
2021/01/01 07:30:36;;;;;;;4.87;3.40;;;4.60;1.00;;;;;;5071102;28;20441;-70
2021/01/01 07:33:04;;;;;;;5.03;4.10;;;4.60;1.00;;;;;;5070505;28;20947;-70
2021/01/01 07:35:30;;;;;;;5.00;4.50;;;4.70;17.50;;;;;;5070646;28;20479;-70
2021/01/01 07:37:59;;;;;;;5.37;4.10;;;4.60;99.90;;;;;;5070424;28;20922;-71
2021/01/01 07:40:25;;;;;;;6.07;4.10;;;4.60;99.90;;;;;;5065322;28;20449;-70
2021/01/01 07:42:53;;;;;;;7.17;5.27;;;4.70;99.90;;;;;;5070730;28;20504;-70
2021/01/01 07:45:20;;;;;;;8.33;4.80;;;4.70;99.90;;;;;;5070564;28;20456;-70
2021/01/01 07:47:47;;;;;;;5.70;4.17;;;4.60;99.90;;;;;;5071054;28;20523;-69
2021/01/01 07:50:15;;;;;;;6.13;4.80;;;4.50;99.90;;;;;;5069861;28;20704;-70
2021/01/01 07:52:42;;;;;;;6.20;4.03;;;4.30;99.90;;;;;;5070641;28;20603;-70
2021/01/01 07:55:11;;;;;;;6.30;4.07;;;4.30;99.90;;;;;;5069686;28;20450;-70
2021/01/01 07:57:39;;;;;;;7.60;4.30;;;4.20;99.90;;;;;;5070446;28;20553;-70
2021/01/01 08:00:07;;;;;;;6.60;3.90;;;4.30;99.90;;;;;;5070216;28;20508;-71
2021/01/01 08:02:33;;;;;;;6.70;4.17;;;4.50;99.90;;;;;;5070274;28;20555;-70
2021/01/01 08:05:03;;;;;;;4.90;3.30;;;4.30;99.90;;;;;;5069582;28;20556;-70
2021/01/01 08:07:30;;;;;;;4.40;3.67;;;4.20;99.90;;;;;;5070289;28;20536;-70
2021/01/01 08:09:56;;;;;;;4.00;2.80;;;4.30;99.90;;;;;;5069179;28;20528;-71
2021/01/01 08:12:24;;;;;;;4.53;3.77;;;4.30;80.70;;;;;;5070283;28;20533;-70
2021/01/01 08:14:51;;;;;;;4.57;4.03;;;4.40;99.90;;;;;;5070319;28;20535;-69
2021/01/01 08:17:22;;;;;;;4.43;3.40;;;4.40;87.10;;;;;;5069393;28;20529;-70
2021/01/01 08:19:49;;;;;;;7.13;3.93;;;4.50;36.20;;;;;;5070373;28;20480;-70
2021/01/01 08:22:22;;;;;;;5.03;4.13;;;4.50;1.00;;;;;;5069953;28;20489;-69
2021/01/01 08:24:51;;;;;;;5.77;3.70;;;4.20;95.50;;;;;;5069768;28;20917;-69
2021/01/01 08:27:19;;;;;;;4.63;3.73;;;4.10;99.90;;;;;;5069935;28;20478;-70
2021/01/01 08:29:47;;;;;;;5.23;4.60;;;4.30;99.90;;;;;;5069846;28;20446;-69
2021/01/01 08:32:14;;;;;;;3.07;2.80;;;4.20;99.90;;;;;;5069886;28;20903;-69
2021/01/01 08:34:41;;;;;;;4.87;3.00;;;4.40;40.00;;;;;;5070224;28;20527;-70
2021/01/01 08:37:18;;;;;;;4.77;3.70;;;4.50;1.00;;;;;;5070060;28;20528;-69
2021/01/01 08:39:45;;;;;;;3.93;3.20;;;4.40;1.00;;;;;;5070009;28;20506;-70
2021/01/01 08:42:21;;;;;;;3.57;2.60;;;4.40;12.40;;;;;;5069061;28;21046;-70
2021/01/01 08:44:49;;;;;;;4.70;3.80;;;4.30;51.00;;;;;;5079953;28;20451;-70
2021/01/01 08:47:16;;;;;;;4.50;3.40;;;4.40;99.90;;;;;;5084910;28;20840;-70
2021/01/01 08:49:42;;;;;;;3.90;3.40;;;4.40;1.00;;;;;;5070052;28;20466;-70
2021/01/01 08:52:12;;;;;;;3.70;3.10;;;4.40;1.00;;;;;;5069509;28;20961;-69
2021/01/01 08:54:39;;;;;;;4.73;3.03;;;4.40;1.00;;;;;;5069769;28;20848;-70
2021/01/01 08:57:05;;;;;;;5.37;3.40;;;4.50;1.00;;;;;;5073709;28;20510;-70
2021/01/01 08:59:32;;;;;;;4.60;2.80;;;4.50;1.00;;;;;;5077030;28;20528;-70
2021/01/01 09:02:03;;;;;;;4.23;3.27;;;4.60;1.00;;;;;;5069709;28;20600;-69
2021/01/01 09:04:30;;;;;;;4.27;3.20;;;4.70;1.00;;;;;;5068604;28;20449;-69
2021/01/01 09:06:57;;;;;;;3.50;2.80;;;;;;;;;;5069504;28;20477;-71
2021/01/01 09:09:31;;;;;;;2.87;2.33;;;;;;;;;;5069918;28;20525;-71
2021/01/01 09:12:12;;;;;;;4.77;2.67;;;;;;;;;;5069474;28;20457;-70
2021/01/01 09:14:45;;;;;;;4.43;2.90;;;;;;;;;;5069216;28;20576;-70
2021/01/01 09:17:13;;;;;;;2.80;2.50;;;;;;;;;;5069572;28;20522;-69
2021/01/01 09:19:39;;;;;;;3.30;1.93;;;;;;;;;;5069256;28;20503;-70
2021/01/01 09:22:16;;;;;;;4.73;2.80;;;;;;;;;;5067644;28;20473;-68
2021/01/01 09:24:43;;;;;;;3.13;2.20;;;;;;;;;;5074735;28;20562;-72
2021/01/01 09:27:10;;;;;;;2.63;2.43;;;;;;;;;;5069471;28;20539;-72
2021/01/01 09:29:37;;;;;;;3.77;2.53;;;;;;;;;;5070397;28;20463;-72
2021/01/01 09:32:06;;;;;;;3.10;2.30;;;;;;;;;;5070641;28;20445;-71
2021/01/01 09:34:33;;;;;;;2.43;2.13;;;;;;;;;;5070201;28;20449;-71
2021/01/01 09:37:06;;;;;;;3.73;3.00;;;;;;;;;;5070406;28;20532;-72
2021/01/01 09:39:33;;;;;;;2.73;2.37;;;;;;;;;;5069029;28;20449;-68
2021/01/01 09:41:59;;;;;;;2.73;2.33;;;;;;;;;;5084337;28;20575;-70
2021/01/01 09:44:26;;;;;;;3.20;2.30;;;;;;;;;;5070913;28;20448;-71
2021/01/01 09:46:53;;;;;;;4.23;3.40;;;;;;;;;;5069214;28;20541;-71
2021/01/01 09:49:20;;;;;;;3.57;2.60;;;;;;;;;;5069105;28;20453;-69
2021/01/01 09:51:48;;;;;;;2.63;2.43;;;;;;;;;;5070700;28;20506;-69
2021/01/01 09:54:14;;;;;;;3.00;2.30;;;;;;;;;;5067520;28;20898;-69
2021/01/01 09:56:41;;;;;;;4.17;2.63;;;;;;;;;;5069986;28;20556;-71
2021/01/01 09:59:08;;;;;;;2.13;1.90;;;;;;;;;;5070124;28;20445;-71
2021/01/01 10:01:34;;;;;;;5.67;3.20;;;;;;;;;;5070765;28;20531;-71
2021/01/01 10:04:02;;;;;;;3.77;2.73;;;;;;;;;;5069526;28;20536;-71
2021/01/01 10:06:28;;;;;;;3.77;2.40;;;;;;;;;;5069990;28;20471;-73
2021/01/01 10:08:56;;;;;;;3.57;2.70;;;;;;;;;;5068936;28;20545;-73
2021/01/01 10:11:22;;;;;;;5.03;3.37;;;;;;;;;;5072722;28;20433;-73
2021/01/01 10:13:49;;;;;;;3.20;2.10;;;;;;;;;;5090375;28;20556;-73
2021/01/01 10:16:16;;;;;;;4.00;2.87;;;;;;;;;;5089575;28;20505;-73
2021/01/01 10:18:42;;;;;;;3.07;2.43;;;;;;;;;;5074307;28;20538;-73
2021/01/01 10:21:10;;;;;;;2.80;2.23;;;;;;;;;;5069458;28;20457;-73
2021/01/01 10:23:37;;;;;;;3.13;2.40;;;;;;;;;;5065691;28;21018;-73
2021/01/01 10:26:04;;;;;;;3.33;2.77;;;;;;;;;;5069069;28;20543;-74
2021/01/01 10:28:31;;;;;;;3.60;2.70;;;;;;;;;;5060020;28;20483;-73
2021/01/01 10:30:59;;;;;;;7.10;3.30;;;;;;;;;;5069191;28;21096;-74
2021/01/01 10:33:26;;;;;;;5.00;2.37;;;;;;;;;;5066962;28;20452;-73
2021/01/01 10:35:52;;;;;;;3.37;2.60;;;;;;;;;;5069488;28;21009;-70
2021/01/01 10:38:19;;;;;;;4.23;2.53;;;;;;;;;;5068326;28;20446;-73
2021/01/01 10:40:46;;;;;;;2.47;1.97;;;;;;;;;;5065882;28;20446;-70
2021/01/01 10:43:13;;;;;;;3.00;2.10;;;;;;;;;;5069430;28;20605;-70
2021/01/01 10:45:40;;;;;;;2.40;2.03;;;;;;;;;;5068867;28;20536;-70
2021/01/01 10:48:07;;;;;;;2.97;2.40;;;;;;;;;;5069309;28;21016;-69
2021/01/01 10:50:34;;;;;;;3.43;2.43;;;;;;;;;;5069524;28;20445;-70
2021/01/01 10:53:00;;;;;;;6.87;4.67;;;;;;;;;;5068754;28;20548;-69
2021/01/01 10:55:28;;;;;;;3.00;2.27;;;;;;;;;;5073478;28;20535;-69
2021/01/01 10:57:55;;;;;;;2.73;2.53;;;;;;;;;;5089417;28;20913;-70
2021/01/01 11:00:23;;;;;;;2.77;2.40;;;;;;;;;;5084157;28;20441;-69
2021/01/01 11:02:49;;;;;;;2.60;2.00;;;;;;;;;;5068860;28;20980;-70
2021/01/01 11:05:16;;;;;;;3.53;2.40;;;;;;;;;;5066155;28;20484;-71
2021/01/01 11:07:43;;;;;;;2.57;2.33;;;;;;;;;;5081430;28;20437;-70
2021/01/01 11:10:10;;;;;;;2.60;2.40;;;;;;;;;;5085831;28;20449;-70
2021/01/01 11:12:38;;;;;;;2.30;2.10;;;;;;;;;;5069379;28;20506;-70
2021/01/01 12:21:42;;;;;;;4.67;3.07;;;5.50;99.90;;;;;;5084067;28;20501;-72
2021/01/01 12:24:37;;;;;;;3.03;2.73;;;5.60;1.00;;;;;;5077436;28;20463;-73
2021/01/01 12:27:04;;;;;;;3.53;3.00;;;5.60;99.90;;;;;;5066831;28;20457;-72
2021/01/01 12:29:31;;;;;;;4.20;2.60;;;5.60;99.90;;;;;;5065600;28;20454;-72
2021/01/01 12:31:57;;;;;;;3.40;3.10;;;5.70;1.00;;;;;;5066931;28;20971;-72
2021/01/01 12:34:24;;;;;;;3.43;2.60;;;5.70;1.00;;;;;;5067342;28;20907;-72
2021/01/01 12:36:50;;;;;;;2.77;2.40;;;5.80;1.00;;;;;;5067881;28;20453;-72
2021/01/01 12:39:18;;;;;;;2.77;2.23;;;5.90;1.00;;;;;;5067623;28;20533;-73
2021/01/01 12:41:44;;;;;;;4.25;2.65;;;5.60;99.90;;;;;;5065643;28;20487;-72
2021/01/01 12:44:10;;;;;;;4.10;3.00;;;5.60;1.00;;;;;;5066546;28;20545;-73
2021/01/01 12:46:37;;;;;;;3.60;2.73;;;5.50;99.90;;;;;;5067686;28;20957;-72
2021/01/01 12:49:03;;;;;;;3.40;2.87;;;5.50;99.90;;;;;;5067429;28;20528;-72
2021/01/01 12:51:30;;;;;;;3.33;3.00;;;5.70;1.00;;;;;;5067569;28;20454;-72
2021/01/01 12:53:56;;;;;;;3.00;2.50;;;5.70;1.00;;;;;;5066630;28;20561;-72
2021/01/01 12:56:23;;;;;;;4.07;3.50;;;5.80;15.00;;;;;;5067531;28;20548;-72
2021/01/01 12:58:49;;;;;;;4.47;2.80;;;5.50;1.00;;;;;;5070811;28;20509;-72
2021/01/01 13:01:16;;;;;;;3.20;2.83;;;5.60;99.90;;;;;;5078887;28;20555;-72
2021/01/01 13:03:42;;;;;;;3.93;2.77;;;5.70;1.00;;;;;;5070898;28;20568;-72
2021/01/01 13:06:09;;;;;;;32.50;19.93;;;5.70;1.00;;;;;;5069277;28;20962;-73
2021/01/01 13:08:35;;;;;;;3.20;2.73;;;5.60;99.90;;;;;;5070961;28;20970;-72
2021/01/01 13:11:02;;;;;;;4.53;2.93;;;5.60;99.90;;;;;;5070301;28;20445;-72
2021/01/01 13:13:29;;;;;;;3.00;2.57;;;5.60;89.90;;;;;;5077965;28;20879;-73
2021/01/01 13:15:55;;;;;;;3.20;2.80;;;5.70;99.90;;;;;;5089004;28;20543;-73
2021/01/01 13:18:22;;;;;;;4.43;3.13;;;5.90;1.00;;;;;;5078205;28;21106;-73
2021/01/01 13:20:48;;;;;;;5.00;3.50;;;5.90;99.90;;;;;;5078277;28;20536;-73
2021/01/01 13:23:15;;;;;;;5.10;3.40;;;5.90;99.90;;;;;;5070428;28;20608;-73
2021/01/01 13:25:41;;;;;;;4.63;3.27;;;5.70;99.90;;;;;;5084902;28;20527;-73
2021/01/01 13:28:07;;;;;;;8.67;2.90;;;5.80;72.30;;;;;;5095417;28;20810;-73
2021/01/01 13:30:35;;;;;;;4.50;3.07;;;5.90;99.90;;;;;;5077028;28;20588;-73
2021/01/01 13:33:01;;;;;;;6.23;4.27;;;5.80;99.90;;;;;;5076622;28;20544;-72
2021/01/01 13:35:28;;;;;;;4.57;2.93;;;5.70;99.90;;;;;;5069971;28;20499;-72
2021/01/01 13:37:55;;;;;;;5.00;3.30;;;5.80;99.90;;;;;;5083125;28;20479;-72
2021/01/01 13:40:22;;;;;;;4.13;3.00;;;5.90;1.00;;;;;;5066742;28;20453;-72
2021/01/01 13:42:50;;;;;;;3.50;3.20;;;5.90;99.90;;;;;;5070142;28;20563;-73
2021/01/01 13:45:17;;;;;;;4.50;3.53;;;6.10;49.10;;;;;;5069887;28;20518;-74
2021/01/01 13:47:44;;;;;;;5.43;3.37;;;6.20;1.00;;;;;;5069468;28;20453;-72
2021/01/01 13:50:12;;;;;;;4.87;3.17;;;6.20;1.00;;;;;;5069377;28;20858;-73
2021/01/01 13:52:39;;;;;;;6.40;3.13;;;6.00;1.00;;;;;;5069901;28;20602;-72
2021/01/01 13:55:06;;;;;;;3.63;3.30;;;6.10;1.00;;;;;;5068121;28;20464;-72
2021/01/01 13:57:32;;;;;;;4.07;3.40;;;6.20;1.00;;;;;;5069332;28;20560;-72
2021/01/01 13:59:59;;;;;;;4.30;3.17;;;6.30;1.00;;;;;;5069861;28;20546;-72
2021/01/01 14:02:25;;;;;;;5.00;3.60;;;6.20;99.90;;;;;;5070304;28;20481;-72
2021/01/01 14:04:52;;;;;;;3.70;2.97;;;6.30;99.90;;;;;;5069063;28;20531;-72
2021/01/01 14:07:19;;;;;;;5.10;3.80;;;6.50;1.00;;;;;;5069317;28;20496;-72
2021/01/01 14:09:45;;;;;;;3.77;3.33;;;6.50;99.90;;;;;;5068951;28;20501;-72
2021/01/01 14:12:12;;;;;;;3.23;1.93;;;6.40;1.00;;;;;;5070267;28;20448;-72
2021/01/01 14:14:38;;;;;;;4.10;2.60;;;5.90;99.90;;;;;;5067978;28;20544;-73
2021/01/01 14:17:04;;;;;;;2.93;2.63;;;6.00;1.00;;;;;;5069465;28;20541;-73
2021/01/01 14:19:31;;;;;;;3.50;2.70;;;6.00;1.00;;;;;;5069876;28;20564;-71
2021/01/01 14:21:58;;;;;;;4.87;2.97;;;5.90;99.90;;;;;;5069387;28;20532;-69